sensor_id;sensor_type;location;lat;lon;timestamp;temperature;humidity
19174;DHT22;9719;49.322;8.536;2022-10-16T00:01:20;18.40;97.20
19174;DHT22;9719;49.322;8.536;2022-10-16T00:06:24;18.40;97.20
19174;DHT22;9719;49.322;8.536;2022-10-16T00:11:28;18.40;97.10
19174;DHT22;9719;49.322;8.536;2022-10-16T00:16:31;18.40;97.10
19174;DHT22;9719;49.322;8.536;2022-10-16T00:21:35;18.40;97.10
19174;DHT22;9719;49.322;8.536;2022-10-16T00:26:37;18.30;97.00
19174;DHT22;9719;49.322;8.536;2022-10-16T00:31:40;18.30;97.00
19174;DHT22;9719;49.322;8.536;2022-10-16T00:36:43;18.30;97.10
19174;DHT22;9719;49.322;8.536;2022-10-16T00:41:45;18.30;97.10
19174;DHT22;9719;49.322;8.536;2022-10-16T00:46:47;18.30;97.10
19174;DHT22;9719;49.322;8.536;2022-10-16T00:51:53;18.30;97.10
19174;DHT22;9719;49.322;8.536;2022-10-16T00:56:57;18.30;97.20
19174;DHT22;9719;49.322;8.536;2022-10-16T01:02:00;18.40;97.10
19174;DHT22;9719;49.322;8.536;2022-10-16T01:07:08;18.40;97.00
19174;DHT22;9719;49.322;8.536;2022-10-16T01:12:15;18.40;96.90
19174;DHT22;9719;49.322;8.536;2022-10-16T01:17:21;18.40;96.90
19174;DHT22;9719;49.322;8.536;2022-10-16T01:22:31;18.40;96.80
19174;DHT22;9719;49.322;8.536;2022-10-16T01:27:38;18.40;96.70
19174;DHT22;9719;49.322;8.536;2022-10-16T01:32:43;18.40;96.70
19174;DHT22;9719;49.322;8.536;2022-10-16T01:37:49;18.40;96.70
19174;DHT22;9719;49.322;8.536;2022-10-16T01:43:00;18.40;96.70
19174;DHT22;9719;49.322;8.536;2022-10-16T01:48:05;18.40;96.70
19174;DHT22;9719;49.322;8.536;2022-10-16T01:53:12;18.40;96.70
19174;DHT22;9719;49.322;8.536;2022-10-16T01:58:16;18.30;96.70
19174;DHT22;9719;49.322;8.536;2022-10-16T02:03:19;18.30;96.60
19174;DHT22;9719;49.322;8.536;2022-10-16T02:08:23;18.30;96.60
19174;DHT22;9719;49.322;8.536;2022-10-16T02:13:31;18.30;96.70
19174;DHT22;9719;49.322;8.536;2022-10-16T02:18:34;18.30;96.60
19174;DHT22;9719;49.322;8.536;2022-10-16T02:23:42;18.40;96.60
19174;DHT22;9719;49.322;8.536;2022-10-16T02:28:53;18.30;96.40
19174;DHT22;9719;49.322;8.536;2022-10-16T02:33:58;18.30;96.40
19174;DHT22;9719;49.322;8.536;2022-10-16T02:39:01;18.20;96.20
19174;DHT22;9719;49.322;8.536;2022-10-16T02:44:05;18.20;96.20
19174;DHT22;9719;49.322;8.536;2022-10-16T02:49:07;18.20;96.20
19174;DHT22;9719;49.322;8.536;2022-10-16T02:54:09;18.20;96.20
19174;DHT22;9719;49.322;8.536;2022-10-16T02:59:13;18.20;96.20
19174;DHT22;9719;49.322;8.536;2022-10-16T03:04:15;18.20;96.30
19174;DHT22;9719;49.322;8.536;2022-10-16T03:09:17;18.10;96.40
19174;DHT22;9719;49.322;8.536;2022-10-16T03:14:20;18.10;96.50
19174;DHT22;9719;49.322;8.536;2022-10-16T03:19:22;18.10;96.60
19174;DHT22;9719;49.322;8.536;2022-10-16T03:24:24;18.10;96.60
19174;DHT22;9719;49.322;8.536;2022-10-16T03:29:28;18.10;96.60
19174;DHT22;9719;49.322;8.536;2022-10-16T03:34:30;18.10;96.60
19174;DHT22;9719;49.322;8.536;2022-10-16T03:39:32;18.10;96.60
19174;DHT22;9719;49.322;8.536;2022-10-16T03:44:35;18.10;96.60
19174;DHT22;9719;49.322;8.536;2022-10-16T03:49:37;18.10;96.60
19174;DHT22;9719;49.322;8.536;2022-10-16T03:54:39;18.10;96.70
19174;DHT22;9719;49.322;8.536;2022-10-16T03:59:43;18.10;96.70
19174;DHT22;9719;49.322;8.536;2022-10-16T04:04:45;18.10;96.60
19174;DHT22;9719;49.322;8.536;2022-10-16T04:09:47;18.10;96.70
19174;DHT22;9719;49.322;8.536;2022-10-16T04:14:50;18.10;96.70
19174;DHT22;9719;49.322;8.536;2022-10-16T04:19:52;18.10;96.70
19174;DHT22;9719;49.322;8.536;2022-10-16T04:24:54;18.20;96.70
19174;DHT22;9719;49.322;8.536;2022-10-16T04:29:58;18.20;96.60
19174;DHT22;9719;49.322;8.536;2022-10-16T04:35:00;18.20;96.60
19174;DHT22;9719;49.322;8.536;2022-10-16T04:40:04;18.20;96.60
19174;DHT22;9719;49.322;8.536;2022-10-16T04:45:08;18.20;96.40
19174;DHT22;9719;49.322;8.536;2022-10-16T04:50:10;18.20;96.40
19174;DHT22;9719;49.322;8.536;2022-10-16T04:55:12;18.20;96.30
19174;DHT22;9719;49.322;8.536;2022-10-16T05:00:16;18.20;96.20
19174;DHT22;9719;49.322;8.536;2022-10-16T05:05:19;18.20;96.30
19174;DHT22;9719;49.322;8.536;2022-10-16T05:10:21;18.20;96.20
19174;DHT22;9719;49.322;8.536;2022-10-16T05:15:24;18.20;96.10
19174;DHT22;9719;49.322;8.536;2022-10-16T05:20:26;18.20;96.20
19174;DHT22;9719;49.322;8.536;2022-10-16T05:25:28;18.10;96.20
19174;DHT22;9719;49.322;8.536;2022-10-16T05:30:32;18.00;96.20
19174;DHT22;9719;49.322;8.536;2022-10-16T05:35:34;18.00;96.20
19174;DHT22;9719;49.322;8.536;2022-10-16T05:40:36;18.00;96.20
19174;DHT22;9719;49.322;8.536;2022-10-16T05:45:39;17.90;96.40
19174;DHT22;9719;49.322;8.536;2022-10-16T05:50:41;17.90;96.50
19174;DHT22;9719;49.322;8.536;2022-10-16T05:55:43;17.90;96.60
19174;DHT22;9719;49.322;8.536;2022-10-16T06:00:55;17.90;96.60
19174;DHT22;9719;49.322;8.536;2022-10-16T06:05:57;17.90;96.70
19174;DHT22;9719;49.322;8.536;2022-10-16T06:11:03;17.90;96.60
19174;DHT22;9719;49.322;8.536;2022-10-16T06:16:08;17.90;96.30
19174;DHT22;9719;49.322;8.536;2022-10-16T06:21:12;17.60;96.40
19174;DHT22;9719;49.322;8.536;2022-10-16T06:26:16;17.40;97.10
19174;DHT22;9719;49.322;8.536;2022-10-16T06:31:20;17.30;97.70
19174;DHT22;9719;49.322;8.536;2022-10-16T06:36:23;17.20;98.00
19174;DHT22;9719;49.322;8.536;2022-10-16T06:41:25;17.20;98.20
19174;DHT22;9719;49.322;8.536;2022-10-16T06:46:28;17.20;98.30
19174;DHT22;9719;49.322;8.536;2022-10-16T06:51:31;17.20;98.50
19174;DHT22;9719;49.322;8.536;2022-10-16T06:56:35;17.20;98.70
19174;DHT22;9719;49.322;8.536;2022-10-16T07:01:38;17.20;98.80
19174;DHT22;9719;49.322;8.536;2022-10-16T07:06:40;17.20;99.00
19174;DHT22;9719;49.322;8.536;2022-10-16T07:11:42;17.20;99.10
19174;DHT22;9719;49.322;8.536;2022-10-16T07:16:46;17.30;99.20
19174;DHT22;9719;49.322;8.536;2022-10-16T07:21:48;17.40;99.40
19174;DHT22;9719;49.322;8.536;2022-10-16T07:26:50;17.50;99.80
19174;DHT22;9719;49.322;8.536;2022-10-16T07:31:53;17.60;99.60
19174;DHT22;9719;49.322;8.536;2022-10-16T07:36:55;17.70;99.40
19174;DHT22;9719;49.322;8.536;2022-10-16T07:41:57;17.80;99.50
19174;DHT22;9719;49.322;8.536;2022-10-16T07:47:01;17.90;99.60
19174;DHT22;9719;49.322;8.536;2022-10-16T07:52:03;17.90;99.80
19174;DHT22;9719;49.322;8.536;2022-10-16T07:57:05;18.00;99.60
19174;DHT22;9719;49.322;8.536;2022-10-16T08:02:09;18.10;99.90
19174;DHT22;9719;49.322;8.536;2022-10-16T08:07:11;18.20;99.70
19174;DHT22;9719;49.322;8.536;2022-10-16T08:12:13;18.30;99.60
19174;DHT22;9719;49.322;8.536;2022-10-16T08:17:16;18.40;99.60
19174;DHT22;9719;49.322;8.536;2022-10-16T08:22:18;18.40;99.60
19174;DHT22;9719;49.322;8.536;2022-10-16T08:27:20;18.30;99.50
19174;DHT22;9719;49.322;8.536;2022-10-16T08:32:24;18.30;99.70
19174;DHT22;9719;49.322;8.536;2022-10-16T08:37:29;18.30;99.80
19174;DHT22;9719;49.322;8.536;2022-10-16T08:42:53;18.30;99.80
19174;DHT22;9719;49.322;8.536;2022-10-16T08:48:08;18.40;99.80
19174;DHT22;9719;49.322;8.536;2022-10-16T08:53:16;18.40;99.90
19174;DHT22;9719;49.322;8.536;2022-10-16T08:58:20;18.50;99.90
19174;DHT22;9719;49.322;8.536;2022-10-16T09:03:46;18.70;99.90
19174;DHT22;9719;49.322;8.536;2022-10-16T09:09:11;18.90;99.90
19174;DHT22;9719;49.322;8.536;2022-10-16T09:14:39;19.30;99.90
19174;DHT22;9719;49.322;8.536;2022-10-16T09:19:48;19.80;99.90
19174;DHT22;9719;49.322;8.536;2022-10-16T09:24:54;19.90;98.90
19174;DHT22;9719;49.322;8.536;2022-10-16T09:29:56;19.90;98.60
19174;DHT22;9719;49.322;8.536;2022-10-16T09:35:00;19.90;98.30
19174;DHT22;9719;49.322;8.536;2022-10-16T09:40:03;19.90;98.00
19174;DHT22;9719;49.322;8.536;2022-10-16T09:45:18;19.90;97.90
19174;DHT22;9719;49.322;8.536;2022-10-16T09:50:25;19.90;97.90
19174;DHT22;9719;49.322;8.536;2022-10-16T09:55:28;19.90;97.80
19174;DHT22;9719;49.322;8.536;2022-10-16T10:00:30;19.90;98.00
19174;DHT22;9719;49.322;8.536;2022-10-16T10:05:34;20.00;97.90
19174;DHT22;9719;49.322;8.536;2022-10-16T10:10:41;20.20;97.90
19174;DHT22;9719;49.322;8.536;2022-10-16T10:15:43;20.40;98.10
19174;DHT22;9719;49.322;8.536;2022-10-16T10:20:57;20.60;97.80
19174;DHT22;9719;49.322;8.536;2022-10-16T10:26:03;20.70;96.80
19174;DHT22;9719;49.322;8.536;2022-10-16T10:31:19;20.80;96.20
19174;DHT22;9719;49.322;8.536;2022-10-16T10:36:34;20.80;96.40
19174;DHT22;9719;49.322;8.536;2022-10-16T10:47:20;22.20;96.00
19174;DHT22;9719;49.322;8.536;2022-10-16T10:52:40;23.50;94.20
19174;DHT22;9719;49.322;8.536;2022-10-16T10:57:52;24.90;91.80
19174;DHT22;9719;49.322;8.536;2022-10-16T11:03:07;25.90;87.90
19174;DHT22;9719;49.322;8.536;2022-10-16T11:08:19;26.40;83.90
19174;DHT22;9719;49.322;8.536;2022-10-16T11:13:30;25.90;82.10
19174;DHT22;9719;49.322;8.536;2022-10-16T11:18:40;26.10;83.50
19174;DHT22;9719;49.322;8.536;2022-10-16T11:23:52;26.00;82.20
19174;DHT22;9719;49.322;8.536;2022-10-16T11:28:56;25.60;81.80
19174;DHT22;9719;49.322;8.536;2022-10-16T11:34:04;25.30;82.20
19174;DHT22;9719;49.322;8.536;2022-10-16T11:39:19;25.00;82.00
19174;DHT22;9719;49.322;8.536;2022-10-16T11:44:43;24.50;82.60
19174;DHT22;9719;49.322;8.536;2022-10-16T11:49:47;24.00;82.70
19174;DHT22;9719;49.322;8.536;2022-10-16T11:55:01;23.60;83.30
19174;DHT22;9719;49.322;8.536;2022-10-16T12:00:09;23.40;84.30
19174;DHT22;9719;49.322;8.536;2022-10-16T12:05:24;23.40;84.40
19174;DHT22;9719;49.322;8.536;2022-10-16T12:10:29;23.40;83.80
19174;DHT22;9719;49.322;8.536;2022-10-16T12:15:37;23.50;84.00
19174;DHT22;9719;49.322;8.536;2022-10-16T12:20:39;23.50;83.70
19174;DHT22;9719;49.322;8.536;2022-10-16T12:25:54;23.40;83.50
19174;DHT22;9719;49.322;8.536;2022-10-16T12:30:58;23.40;83.70
19174;DHT22;9719;49.322;8.536;2022-10-16T12:36:03;23.30;83.10
19174;DHT22;9719;49.322;8.536;2022-10-16T12:41:09;23.20;83.00
19174;DHT22;9719;49.322;8.536;2022-10-16T12:46:23;23.20;82.60
19174;DHT22;9719;49.322;8.536;2022-10-16T12:51:34;23.20;82.40
19174;DHT22;9719;49.322;8.536;2022-10-16T12:56:46;23.10;81.70
19174;DHT22;9719;49.322;8.536;2022-10-16T13:02:32;23.10;82.40
19174;DHT22;9719;49.322;8.536;2022-10-16T13:07:56;23.00;81.60
19174;DHT22;9719;49.322;8.536;2022-10-16T13:18:41;22.90;82.10
19174;DHT22;9719;49.322;8.536;2022-10-16T13:23:50;22.80;81.10
19174;DHT22;9719;49.322;8.536;2022-10-16T13:28:59;22.80;81.60
19174;DHT22;9719;49.322;8.536;2022-10-16T13:34:01;22.70;81.90
19174;DHT22;9719;49.322;8.536;2022-10-16T13:39:12;22.50;81.60
19174;DHT22;9719;49.322;8.536;2022-10-16T13:44:19;22.40;81.70
19174;DHT22;9719;49.322;8.536;2022-10-16T13:49:21;22.30;82.00
19174;DHT22;9719;49.322;8.536;2022-10-16T13:54:24;22.20;82.30
19174;DHT22;9719;49.322;8.536;2022-10-16T13:59:35;22.20;82.80
19174;DHT22;9719;49.322;8.536;2022-10-16T14:04:38;22.20;82.40
19174;DHT22;9719;49.322;8.536;2022-10-16T14:09:41;22.00;82.40
19174;DHT22;9719;49.322;8.536;2022-10-16T14:14:46;22.00;82.80
19174;DHT22;9719;49.322;8.536;2022-10-16T14:19:51;21.80;83.10
19174;DHT22;9719;49.322;8.536;2022-10-16T14:24:54;21.70;83.70
19174;DHT22;9719;49.322;8.536;2022-10-16T14:30:16;21.60;84.20
19174;DHT22;9719;49.322;8.536;2022-10-16T14:35:24;21.60;84.40
19174;DHT22;9719;49.322;8.536;2022-10-16T14:40:28;21.50;84.30
19174;DHT22;9719;49.322;8.536;2022-10-16T14:45:34;21.50;84.50
19174;DHT22;9719;49.322;8.536;2022-10-16T14:50:37;21.50;84.70
19174;DHT22;9719;49.322;8.536;2022-10-16T14:55:39;21.50;84.70
19174;DHT22;9719;49.322;8.536;2022-10-16T15:00:45;21.50;84.70
19174;DHT22;9719;49.322;8.536;2022-10-16T15:05:48;21.60;84.80
19174;DHT22;9719;49.322;8.536;2022-10-16T15:10:51;21.70;84.60
19174;DHT22;9719;49.322;8.536;2022-10-16T15:15:54;21.80;84.60
19174;DHT22;9719;49.322;8.536;2022-10-16T15:20:56;21.90;84.40
19174;DHT22;9719;49.322;8.536;2022-10-16T15:25:59;21.90;84.20
19174;DHT22;9719;49.322;8.536;2022-10-16T15:31:04;21.90;83.90
19174;DHT22;9719;49.322;8.536;2022-10-16T15:36:07;21.80;83.90
19174;DHT22;9719;49.322;8.536;2022-10-16T15:41:09;21.80;84.10
19174;DHT22;9719;49.322;8.536;2022-10-16T15:46:13;21.60;84.10
19174;DHT22;9719;49.322;8.536;2022-10-16T15:51:16;21.60;84.40
19174;DHT22;9719;49.322;8.536;2022-10-16T15:56:18;21.60;84.50
19174;DHT22;9719;49.322;8.536;2022-10-16T16:01:21;21.60;84.70
19174;DHT22;9719;49.322;8.536;2022-10-16T16:06:24;21.50;84.70
19174;DHT22;9719;49.322;8.536;2022-10-16T16:11:26;21.50;84.80
19174;DHT22;9719;49.322;8.536;2022-10-16T16:16:29;21.50;84.90
19174;DHT22;9719;49.322;8.536;2022-10-16T16:21:32;21.40;84.90
19174;DHT22;9719;49.322;8.536;2022-10-16T16:26:35;21.30;84.90
19174;DHT22;9719;49.322;8.536;2022-10-16T16:31:41;21.20;84.80
19174;DHT22;9719;49.322;8.536;2022-10-16T16:36:43;21.10;85.00
19174;DHT22;9719;49.322;8.536;2022-10-16T16:41:46;20.70;84.80
19174;DHT22;9719;49.322;8.536;2022-10-16T16:46:49;20.80;85.00
19174;DHT22;9719;49.322;8.536;2022-10-16T16:51:52;20.70;85.20
19174;DHT22;9719;49.322;8.536;2022-10-16T16:56:57;20.50;85.60
19174;DHT22;9719;49.322;8.536;2022-10-16T17:02:03;20.30;85.90
19174;DHT22;9719;49.322;8.536;2022-10-16T17:07:05;20.10;86.00
19174;DHT22;9719;49.322;8.536;2022-10-16T17:12:08;20.00;86.20
19174;DHT22;9719;49.322;8.536;2022-10-16T17:17:11;19.80;86.60
19174;DHT22;9719;49.322;8.536;2022-10-16T17:22:13;19.70;86.80
19174;DHT22;9719;49.322;8.536;2022-10-16T17:27:15;19.60;86.70
19174;DHT22;9719;49.322;8.536;2022-10-16T17:32:18;19.50;87.10
19174;DHT22;9719;49.322;8.536;2022-10-16T17:37:21;19.30;87.30
19174;DHT22;9719;49.322;8.536;2022-10-16T17:42:23;19.20;87.50
19174;DHT22;9719;49.322;8.536;2022-10-16T17:47:27;19.00;87.80
19174;DHT22;9719;49.322;8.536;2022-10-16T17:52:29;19.00;88.10
19174;DHT22;9719;49.322;8.536;2022-10-16T17:57:31;19.00;88.30
19174;DHT22;9719;49.322;8.536;2022-10-16T18:02:35;18.40;88.20
19174;DHT22;9719;49.322;8.536;2022-10-16T18:07:37;18.90;88.60
19174;DHT22;9719;49.322;8.536;2022-10-16T18:12:39;18.90;88.80
19174;DHT22;9719;49.322;8.536;2022-10-16T18:17:42;18.90;88.90
19174;DHT22;9719;49.322;8.536;2022-10-16T18:22:44;18.80;89.00
19174;DHT22;9719;49.322;8.536;2022-10-16T18:27:46;18.80;89.10
19174;DHT22;9719;49.322;8.536;2022-10-16T18:32:49;18.90;89.40
19174;DHT22;9719;49.322;8.536;2022-10-16T18:37:52;18.80;89.20
19174;DHT22;9719;49.322;8.536;2022-10-16T18:42:58;18.90;89.40
19174;DHT22;9719;49.322;8.536;2022-10-16T18:48:02;18.80;89.40
19174;DHT22;9719;49.322;8.536;2022-10-16T18:53:04;18.90;89.70
19174;DHT22;9719;49.322;8.536;2022-10-16T18:58:06;18.80;89.60
19174;DHT22;9719;49.322;8.536;2022-10-16T19:03:10;18.80;89.70
19174;DHT22;9719;49.322;8.536;2022-10-16T19:08:12;18.80;89.80
19174;DHT22;9719;49.322;8.536;2022-10-16T19:13:14;18.80;89.90
19174;DHT22;9719;49.322;8.536;2022-10-16T19:18:18;18.80;89.90
19174;DHT22;9719;49.322;8.536;2022-10-16T19:23:20;18.80;89.90
19174;DHT22;9719;49.322;8.536;2022-10-16T19:28:23;18.90;90.00
19174;DHT22;9719;49.322;8.536;2022-10-16T19:33:26;18.90;90.00
19174;DHT22;9719;49.322;8.536;2022-10-16T19:38:28;18.90;90.00
19174;DHT22;9719;49.322;8.536;2022-10-16T19:43:30;19.00;90.00
19174;DHT22;9719;49.322;8.536;2022-10-16T19:48:34;19.00;90.00
19174;DHT22;9719;49.322;8.536;2022-10-16T19:53:36;18.90;90.00
19174;DHT22;9719;49.322;8.536;2022-10-16T19:58:38;18.90;90.00
19174;DHT22;9719;49.322;8.536;2022-10-16T20:03:42;19.00;90.00
19174;DHT22;9719;49.322;8.536;2022-10-16T20:08:45;18.90;90.10
19174;DHT22;9719;49.322;8.536;2022-10-16T20:13:49;18.90;90.10
19174;DHT22;9719;49.322;8.536;2022-10-16T20:18:52;18.80;90.10
19174;DHT22;9719;49.322;8.536;2022-10-16T20:23:55;18.80;90.20
19174;DHT22;9719;49.322;8.536;2022-10-16T20:28:57;18.70;90.20
19174;DHT22;9719;49.322;8.536;2022-10-16T20:34:03;18.70;90.30
19174;DHT22;9719;49.322;8.536;2022-10-16T20:39:07;18.60;90.30
19174;DHT22;9719;49.322;8.536;2022-10-16T20:44:09;18.70;90.50
19174;DHT22;9719;49.322;8.536;2022-10-16T20:49:12;18.60;90.40
19174;DHT22;9719;49.322;8.536;2022-10-16T20:54:15;18.50;90.50
19174;DHT22;9719;49.322;8.536;2022-10-16T20:59:17;18.60;90.50
19174;DHT22;9719;49.322;8.536;2022-10-16T21:04:21;18.60;90.60
19174;DHT22;9719;49.322;8.536;2022-10-16T21:09:23;18.60;90.70
19174;DHT22;9719;49.322;8.536;2022-10-16T21:14:25;18.50;90.60
19174;DHT22;9719;49.322;8.536;2022-10-16T21:19:29;18.50;90.60
19174;DHT22;9719;49.322;8.536;2022-10-16T21:24:31;18.40;90.50
19174;DHT22;9719;49.322;8.536;2022-10-16T21:29:33;18.30;90.60
19174;DHT22;9719;49.322;8.536;2022-10-16T21:34:37;18.30;90.80
19174;DHT22;9719;49.322;8.536;2022-10-16T21:39:39;18.20;90.70
19174;DHT22;9719;49.322;8.536;2022-10-16T21:44:41;18.10;90.90
19174;DHT22;9719;49.322;8.536;2022-10-16T21:49:45;18.00;90.90
19174;DHT22;9719;49.322;8.536;2022-10-16T21:54:47;17.90;91.20
19174;DHT22;9719;49.322;8.536;2022-10-16T21:59:49;18.00;91.30
19174;DHT22;9719;49.322;8.536;2022-10-16T22:04:52;17.90;91.50
19174;DHT22;9719;49.322;8.536;2022-10-16T22:09:54;17.90;91.50
19174;DHT22;9719;49.322;8.536;2022-10-16T22:14:56;17.90;91.50
19174;DHT22;9719;49.322;8.536;2022-10-16T22:20:00;17.90;91.60
19174;DHT22;9719;49.322;8.536;2022-10-16T22:25:02;17.90;91.60
19174;DHT22;9719;49.322;8.536;2022-10-16T22:30:05;17.80;91.60
19174;DHT22;9719;49.322;8.536;2022-10-16T22:35:08;17.80;91.60
19174;DHT22;9719;49.322;8.536;2022-10-16T22:40:12;17.80;91.60
19174;DHT22;9719;49.322;8.536;2022-10-16T22:45:14;17.80;91.60
19174;DHT22;9719;49.322;8.536;2022-10-16T22:50:17;17.80;91.60
19174;DHT22;9719;49.322;8.536;2022-10-16T22:55:19;17.80;91.80
19174;DHT22;9719;49.322;8.536;2022-10-16T23:00:22;17.80;91.70
19174;DHT22;9719;49.322;8.536;2022-10-16T23:05:25;17.80;91.70
19174;DHT22;9719;49.322;8.536;2022-10-16T23:10:27;17.80;91.70
19174;DHT22;9719;49.322;8.536;2022-10-16T23:15:29;17.70;91.80
19174;DHT22;9719;49.322;8.536;2022-10-16T23:20:33;17.70;91.80
19174;DHT22;9719;49.322;8.536;2022-10-16T23:25:35;17.70;91.80
19174;DHT22;9719;49.322;8.536;2022-10-16T23:30:37;17.70;91.80
19174;DHT22;9719;49.322;8.536;2022-10-16T23:35:41;17.70;91.80
19174;DHT22;9719;49.322;8.536;2022-10-16T23:40:43;17.70;91.70
19174;DHT22;9719;49.322;8.536;2022-10-16T23:45:45;17.70;91.70
19174;DHT22;9719;49.322;8.536;2022-10-16T23:50:48;17.60;91.70
19174;DHT22;9719;49.322;8.536;2022-10-16T23:55:51;17.70;91.80
